createdAt,value
2018-10-19T00:01:43.118Z,29.20
2018-10-19T00:04:11.525Z,33.87
2018-10-19T00:06:40.004Z,31.00
2018-10-19T00:09:09.965Z,29.60
2018-10-19T00:11:38.523Z,25.33
2018-10-19T00:14:07.055Z,27.37
2018-10-19T00:16:35.606Z,25.00
2018-10-19T00:19:04.016Z,25.00
2018-10-19T00:21:32.453Z,25.43
2018-10-19T00:24:00.832Z,23.57
2018-10-19T00:26:29.276Z,22.27
2018-10-19T00:28:57.657Z,21.23
2018-10-19T00:31:26.104Z,22.57
2018-10-19T00:33:55.000Z,21.57
2018-10-19T00:36:23.397Z,22.80
2018-10-19T00:38:51.809Z,20.60
2018-10-19T00:41:20.518Z,19.60
2018-10-19T00:43:48.972Z,21.33
2018-10-19T00:46:17.401Z,21.37
2018-10-19T00:48:45.833Z,18.27
2018-10-19T00:51:14.329Z,21.23
2018-10-19T00:53:42.742Z,18.90
2018-10-19T00:56:11.132Z,20.80
2018-10-19T00:58:39.555Z,20.43
2018-10-19T01:01:07.969Z,20.83
2018-10-19T01:03:36.397Z,20.70
2018-10-19T01:06:05.189Z,19.87
2018-10-19T01:08:33.610Z,19.50
2018-10-19T01:11:02.121Z,19.50
2018-10-19T01:13:30.473Z,20.80
2018-10-19T01:15:58.852Z,19.80
2018-10-19T01:18:27.248Z,19.53
2018-10-19T01:20:55.657Z,19.03
2018-10-19T01:23:24.073Z,19.93
2018-10-19T01:25:52.462Z,20.67
2018-10-19T01:28:20.883Z,20.00
2018-10-19T01:30:49.423Z,20.77
2018-10-19T01:33:17.905Z,21.67
2018-10-19T01:35:46.312Z,19.13
2018-10-19T01:38:14.752Z,21.17
2018-10-19T01:40:43.191Z,21.03
2018-10-19T01:43:11.586Z,20.33
2018-10-19T01:45:43.969Z,19.33
2018-10-19T01:48:12.350Z,20.07
2018-10-19T01:50:40.759Z,18.90
2018-10-19T01:53:09.204Z,19.83
2018-10-19T01:55:37.572Z,19.30
2018-10-19T01:58:06.249Z,20.70
2018-10-19T02:00:34.645Z,20.53
2018-10-19T02:03:03.111Z,17.63
2018-10-19T02:05:31.576Z,18.70
2018-10-19T02:08:00.024Z,20.27
2018-10-19T02:10:28.440Z,18.70
2018-10-19T02:12:56.901Z,20.17
2018-10-19T02:15:25.333Z,18.63
2018-10-19T02:17:53.735Z,16.63
2018-10-19T02:20:22.124Z,16.67
2018-10-19T02:22:50.515Z,16.60
2018-10-19T02:25:18.899Z,18.30
2018-10-19T02:27:47.340Z,16.33
2018-10-19T02:30:15.798Z,17.73
2018-10-19T02:32:44.208Z,17.40
2018-10-19T02:35:12.723Z,16.50
2018-10-19T02:37:41.045Z,17.57
2018-10-19T02:40:10.258Z,17.73
2018-10-19T02:42:38.903Z,16.27
2018-10-19T02:45:08.571Z,18.83
2018-10-19T02:47:36.868Z,17.63
2018-10-19T02:50:06.119Z,18.03
2018-10-19T02:52:34.552Z,18.30
2018-10-19T02:55:03.237Z,22.93
2018-10-19T02:57:32.131Z,18.33
2018-10-19T03:00:00.728Z,19.20
2018-10-19T03:02:29.137Z,17.97
2018-10-19T03:04:57.633Z,17.70
2018-10-19T03:07:26.008Z,18.77
2018-10-19T03:09:54.412Z,17.57
2018-10-19T03:12:22.810Z,18.00
2018-10-19T03:14:51.207Z,18.53
2018-10-19T03:17:19.629Z,17.97
2018-10-19T03:19:48.016Z,18.77
2018-10-19T03:22:16.397Z,18.43
2018-10-19T03:24:44.800Z,17.40
2018-10-19T03:27:13.678Z,20.10
2018-10-19T03:29:42.000Z,20.70
2018-10-19T03:32:10.449Z,19.50
2018-10-19T03:34:39.108Z,17.83
2018-10-19T03:37:07.722Z,18.47
2018-10-19T03:39:36.117Z,19.10
2018-10-19T03:42:04.548Z,17.20
2018-10-19T03:44:32.968Z,20.10
2018-10-19T03:47:01.420Z,18.63
2018-10-19T03:49:29.780Z,17.93
2018-10-19T03:51:58.161Z,18.20
2018-10-19T03:54:26.720Z,18.70
2018-10-19T03:56:55.162Z,16.90
2018-10-19T03:59:23.510Z,16.23
2018-10-19T04:01:51.960Z,18.37
2018-10-19T04:04:20.324Z,18.17
2018-10-19T04:06:48.759Z,16.90
2018-10-19T04:09:16.990Z,17.97
2018-10-19T04:11:45.372Z,17.00
2018-10-19T04:14:13.867Z,18.70
2018-10-19T04:16:42.303Z,17.77
2018-10-19T04:19:10.941Z,19.53
2018-10-19T04:21:39.549Z,19.43
2018-10-19T04:24:07.987Z,17.97
2018-10-19T04:26:36.493Z,20.37
2018-10-19T04:29:05.365Z,18.63
2018-10-19T04:31:33.709Z,18.07
2018-10-19T04:34:02.310Z,17.30
2018-10-19T04:36:30.711Z,18.50
2018-10-19T04:38:59.122Z,19.23
2018-10-19T04:41:27.530Z,19.47
2018-10-19T04:43:55.885Z,18.03
2018-10-19T04:46:24.448Z,18.53
2018-10-19T04:48:52.886Z,19.20
2018-10-19T04:51:21.396Z,18.33
2018-10-19T04:53:49.923Z,19.10
2018-10-19T04:56:18.281Z,19.73
2018-10-19T04:58:46.672Z,20.10
2018-10-19T05:01:15.092Z,18.73
2018-10-19T05:03:43.525Z,19.10
2018-10-19T05:06:11.948Z,18.87
2018-10-19T05:08:40.324Z,20.10
2018-10-19T05:11:08.817Z,19.00
2018-10-19T05:13:37.168Z,19.00
2018-10-19T05:16:06.164Z,17.93
2018-10-19T05:18:34.503Z,18.37
2018-10-19T05:21:02.920Z,19.60
2018-10-19T05:23:31.355Z,20.47
2018-10-19T05:25:59.931Z,18.10
2018-10-19T05:28:28.305Z,19.77
2018-10-19T05:30:56.820Z,20.63
2018-10-19T05:33:25.263Z,20.97
2018-10-19T05:35:53.686Z,19.60
2018-10-19T05:38:22.106Z,19.60
2018-10-19T05:40:50.481Z,19.67
2018-10-19T05:43:18.861Z,19.70
2018-10-19T05:45:47.237Z,19.53
2018-10-19T05:48:15.804Z,19.50
2018-10-19T05:50:44.188Z,18.80
2018-10-19T05:53:12.737Z,18.80
2018-10-19T05:55:40.969Z,19.70
2018-10-19T05:58:09.899Z,18.57
2018-10-19T06:00:38.385Z,19.77
2018-10-19T06:03:06.901Z,18.23
2018-10-19T06:05:35.368Z,20.27
2018-10-19T06:08:03.857Z,20.90
2018-10-19T06:10:32.244Z,20.70
2018-10-19T06:13:00.756Z,18.20
2018-10-19T06:15:29.140Z,19.93
2018-10-19T06:17:57.590Z,19.17
2018-10-19T06:20:25.985Z,17.77
2018-10-19T06:22:54.625Z,16.93
2018-10-19T06:25:23.035Z,16.23
2018-10-19T06:27:51.467Z,16.20
2018-10-19T06:30:19.966Z,16.13
2018-10-19T06:32:48.429Z,15.27
2018-10-19T06:35:16.832Z,18.30
2018-10-19T06:37:45.180Z,18.07
2018-10-19T06:40:13.574Z,14.83
2018-10-19T06:42:41.985Z,15.40
2018-10-19T06:45:10.465Z,16.23
2018-10-19T06:47:38.870Z,14.90
2018-10-19T06:50:09.617Z,15.20
2018-10-19T06:52:38.044Z,14.53
2018-10-19T06:55:08.055Z,15.03
2018-10-19T06:57:36.600Z,16.50
2018-10-19T07:00:05.552Z,15.60
2018-10-19T07:02:33.940Z,16.30
2018-10-19T07:05:02.463Z,18.30
2018-10-19T07:07:30.797Z,15.17
2018-10-19T07:09:59.189Z,15.63
2018-10-19T07:12:27.585Z,14.93
2018-10-19T07:14:55.970Z,16.80
2018-10-19T07:17:24.396Z,16.67
2018-10-19T07:19:52.882Z,15.70
2018-10-19T07:22:21.276Z,18.10
2018-10-19T07:24:49.813Z,16.80
2018-10-19T07:27:18.284Z,15.60
2018-10-19T07:29:46.725Z,14.87
2018-10-19T07:32:15.263Z,16.63
2018-10-19T07:34:43.631Z,15.10
2018-10-19T07:37:12.052Z,16.00
2018-10-19T07:39:40.502Z,16.07
2018-10-19T07:42:08.971Z,15.80
2018-10-19T07:44:37.456Z,15.97
2018-10-19T07:47:06.166Z,15.07
2018-10-19T07:49:34.547Z,16.27
2018-10-19T07:52:03.001Z,15.77
2018-10-19T07:54:31.501Z,16.73
2018-10-19T07:56:59.877Z,16.07
2018-10-19T07:59:28.460Z,15.17
2018-10-19T08:01:56.913Z,15.57
2018-10-19T08:04:25.396Z,16.47
2018-10-19T08:06:54.102Z,16.07
2018-10-19T08:09:22.668Z,18.17
2018-10-19T08:11:51.106Z,17.70
2018-10-19T08:14:19.684Z,18.40
2018-10-19T08:16:48.250Z,19.53
2018-10-19T08:19:16.779Z,17.67
2018-10-19T08:21:45.295Z,18.77
2018-10-19T08:24:13.771Z,18.13
2018-10-19T08:26:42.293Z,17.13
2018-10-19T08:29:10.727Z,18.77
2018-10-19T08:31:39.125Z,20.27
2018-10-19T08:34:07.572Z,17.87
2018-10-19T08:36:36.065Z,19.33
2018-10-19T08:39:06.556Z,16.13
2018-10-19T08:41:35.192Z,20.37
2018-10-19T08:44:03.673Z,21.90
2018-10-19T08:46:37.709Z,19.37
2018-10-19T08:49:08.432Z,17.50
2018-10-19T08:51:36.827Z,16.10
2018-10-19T08:54:05.493Z,21.30
2018-10-19T08:56:33.998Z,20.03
2018-10-19T08:59:02.494Z,19.43
2018-10-19T09:01:30.888Z,18.33
2018-10-19T09:03:59.349Z,18.40
2018-10-19T09:06:27.744Z,18.70
2018-10-19T09:08:56.251Z,16.90
2018-10-19T09:11:25.177Z,17.87
2018-10-19T09:13:53.564Z,18.83
2018-10-19T09:16:22.008Z,19.33
2018-10-19T09:18:50.744Z,19.07
2018-10-19T09:21:19.237Z,20.27
2018-10-19T09:23:47.803Z,20.37
2018-10-19T09:26:16.265Z,20.10
2018-10-19T09:28:44.758Z,21.13
2018-10-19T09:31:13.245Z,21.10
2018-10-19T09:33:41.798Z,20.97
2018-10-19T09:36:10.441Z,22.20
2018-10-19T09:38:38.733Z,24.37
2018-10-19T09:41:07.242Z,25.43
2018-10-19T09:43:35.612Z,27.50
2018-10-19T09:46:04.117Z,27.10
2018-10-19T09:48:32.628Z,27.03
2018-10-19T09:51:01.094Z,28.43
2018-10-19T09:53:29.663Z,31.53
2018-10-19T09:55:58.096Z,28.93
2018-10-19T09:58:26.529Z,29.37
2018-10-19T10:00:57.121Z,31.17
2018-10-19T10:03:26.024Z,28.47
2018-10-19T10:05:54.747Z,29.20
2018-10-19T10:08:23.874Z,27.90
2018-10-19T10:10:52.518Z,27.70
2018-10-19T10:13:20.953Z,28.87
2018-10-19T10:15:49.488Z,27.77
2018-10-19T10:18:17.884Z,29.50
2018-10-19T10:20:46.441Z,30.20
2018-10-19T10:23:15.012Z,29.17
2018-10-19T10:25:43.450Z,27.83
2018-10-19T10:28:11.976Z,29.93
2018-10-19T10:30:40.404Z,30.00
2018-10-19T10:33:08.976Z,30.00
2018-10-19T10:35:37.410Z,30.13
2018-10-19T10:38:06.174Z,31.10
2018-10-19T10:40:34.606Z,32.47
2018-10-19T10:43:03.114Z,29.73
2018-10-19T10:45:31.569Z,31.27
2018-10-19T10:48:00.084Z,32.30
2018-10-19T10:50:28.614Z,31.17
2018-10-19T10:52:57.045Z,31.40
2018-10-19T10:55:25.465Z,34.77
2018-10-19T10:57:53.935Z,30.13
2018-10-19T11:00:23.394Z,28.23
2018-10-19T11:02:51.882Z,28.03
2018-10-19T11:05:20.345Z,25.80
2018-10-19T11:07:49.044Z,26.50
2018-10-19T11:10:17.599Z,30.67
2018-10-19T11:12:46.032Z,26.40
2018-10-19T11:15:14.517Z,29.27
2018-10-19T11:17:42.957Z,27.97
2018-10-19T11:20:11.756Z,29.27
2018-10-19T11:22:40.197Z,26.93
2018-10-19T11:25:08.893Z,32.03
2018-10-19T11:27:37.378Z,29.30
2018-10-19T11:30:07.082Z,27.03
2018-10-19T11:32:35.504Z,27.27
2018-10-19T11:35:03.932Z,28.07
2018-10-19T11:37:32.397Z,28.07
2018-10-19T11:40:27.448Z,25.33
2018-10-19T11:42:56.728Z,26.93
2018-10-19T11:45:27.673Z,24.70
2018-10-19T11:47:56.154Z,25.27
2018-10-19T11:50:24.628Z,27.30
2018-10-19T11:52:53.102Z,25.13
2018-10-19T11:55:21.517Z,27.80
2018-10-19T11:57:50.531Z,25.90
2018-10-19T12:00:19.125Z,25.23
2018-10-19T12:02:47.673Z,24.43
2018-10-19T12:05:17.004Z,25.43
2018-10-19T12:07:45.451Z,27.03
2018-10-19T12:10:14.638Z,25.80
2018-10-19T12:12:43.620Z,24.90
2018-10-19T12:15:13.459Z,26.40
2018-10-19T12:17:42.705Z,25.00
2018-10-19T12:20:13.189Z,26.20
2018-10-19T12:22:41.625Z,26.00
2018-10-19T12:25:11.042Z,25.47
2018-10-19T12:27:39.961Z,26.37
2018-10-19T12:30:09.368Z,25.30
2018-10-19T12:32:38.052Z,22.70
2018-10-19T12:35:08.095Z,24.63
2018-10-19T12:37:36.748Z,24.03
2018-10-19T12:40:05.673Z,26.37
2018-10-19T12:42:34.188Z,26.27
2018-10-19T12:45:02.669Z,24.33
2018-10-19T12:47:36.355Z,24.67
2018-10-19T12:50:05.005Z,23.70
2018-10-19T12:52:33.424Z,25.10
2018-10-19T12:55:01.905Z,26.20
2018-10-19T12:57:30.398Z,25.57
2018-10-19T12:59:58.746Z,24.27
2018-10-19T13:02:27.406Z,26.27
2018-10-19T13:04:55.825Z,22.10
2018-10-19T13:07:24.475Z,23.13
2018-10-19T13:09:53.177Z,22.47
2018-10-19T13:12:21.582Z,22.00
2018-10-19T13:14:50.035Z,23.23
2018-10-19T13:17:18.513Z,22.20
2018-10-19T13:19:47.047Z,19.73
2018-10-19T13:22:15.560Z,19.50
2018-10-19T13:24:44.005Z,18.13
2018-10-19T13:27:12.431Z,17.77
2018-10-19T13:29:40.889Z,18.13
2018-10-19T13:32:09.313Z,17.47
2018-10-19T13:34:37.842Z,18.97
2018-10-19T13:37:06.287Z,18.07
2018-10-19T13:39:34.726Z,16.83
2018-10-19T13:42:03.144Z,17.23
2018-10-19T13:44:31.610Z,17.30
2018-10-19T13:47:00.082Z,17.17
2018-10-19T13:49:28.544Z,16.07
2018-10-19T13:51:56.975Z,16.23
2018-10-19T13:54:25.404Z,16.83
2018-10-19T13:56:54.044Z,17.87
2018-10-19T13:59:22.500Z,17.10
2018-10-19T14:01:50.943Z,14.70
2018-10-19T14:04:19.477Z,16.90
2018-10-19T14:06:47.924Z,16.33
2018-10-19T14:09:16.462Z,16.80
2018-10-19T14:11:44.784Z,15.50
2018-10-19T14:14:13.176Z,16.23
2018-10-19T14:16:41.729Z,16.10
2018-10-19T14:19:10.171Z,15.80
2018-10-19T14:21:38.672Z,17.47
2018-10-19T14:24:07.182Z,15.47
2018-10-19T14:26:36.309Z,15.17
2018-10-19T14:29:05.340Z,15.00
2018-10-19T14:31:33.811Z,16.17
2018-10-19T14:34:02.222Z,15.77
2018-10-19T14:36:30.667Z,14.83
2018-10-19T14:38:59.165Z,15.20
2018-10-19T14:41:27.589Z,15.57
2018-10-19T14:43:56.055Z,14.90
2018-10-19T14:46:24.670Z,15.13
2018-10-19T14:48:53.162Z,14.57
2018-10-19T14:51:21.749Z,13.90
2018-10-19T14:53:50.167Z,13.70
2018-10-19T14:56:18.645Z,13.90
2018-10-19T14:58:47.086Z,14.40
2018-10-19T15:01:15.579Z,15.00
2018-10-19T15:03:44.001Z,14.50
2018-10-19T15:06:12.387Z,15.30
2018-10-19T15:08:40.823Z,15.20
2018-10-19T15:11:09.350Z,15.27
2018-10-19T15:13:37.731Z,15.37
2018-10-19T15:16:06.531Z,15.60
2018-10-19T15:18:35.197Z,18.27
2018-10-19T15:21:03.760Z,17.63
2018-10-19T15:23:33.163Z,16.00
2018-10-19T15:26:01.653Z,16.83
2018-10-19T15:28:30.065Z,17.33
2018-10-19T15:30:58.468Z,17.23
2018-10-19T15:33:27.077Z,17.43
2018-10-19T15:35:55.670Z,17.27
2018-10-19T15:38:24.215Z,18.00
2018-10-19T15:40:52.763Z,17.17
2018-10-19T15:43:21.560Z,16.93
2018-10-19T15:45:50.378Z,18.27
2018-10-19T15:48:18.816Z,18.17
2018-10-19T15:50:47.432Z,15.80
2018-10-19T15:53:15.968Z,17.70
2018-10-19T15:55:44.396Z,17.00
2018-10-19T15:58:12.804Z,17.43
2018-10-19T16:00:41.310Z,17.60
2018-10-19T16:03:09.763Z,16.57
2018-10-19T16:05:38.129Z,16.90
2018-10-19T16:08:06.594Z,16.80
2018-10-19T16:13:20.001Z,16.27
2018-10-19T16:21:30.553Z,17.07
2018-10-19T16:24:18.862Z,16.67
2018-10-19T16:29:37.981Z,15.50
2018-10-19T16:32:19.696Z,18.63
2018-10-19T16:40:29.184Z,29.93
2018-10-19T16:43:18.510Z,22.77
2018-10-19T16:48:37.585Z,26.67
2018-10-19T16:51:19.207Z,23.77
2018-10-19T16:59:23.318Z,26.80
2018-10-19T17:10:24.088Z,26.33
2018-10-19T17:15:43.021Z,24.20
2018-10-19T17:18:20.156Z,22.60
2018-10-19T17:29:20.481Z,23.30
2018-10-19T17:37:32.572Z,24.70
2018-10-19T17:40:01.049Z,21.33
2018-10-19T17:42:29.476Z,25.57
2018-10-19T17:44:57.962Z,23.80
2018-10-19T17:47:26.296Z,23.00
2018-10-19T17:49:54.741Z,21.87
2018-10-19T17:52:23.165Z,21.80
2018-10-19T17:54:51.861Z,24.23
2018-10-19T17:57:20.289Z,24.03
2018-10-19T17:59:48.716Z,21.87
2018-10-19T18:02:17.815Z,27.43
2018-10-19T18:04:46.297Z,29.57
2018-10-19T18:07:15.945Z,25.40
2018-10-19T18:09:44.677Z,32.80
2018-10-19T18:12:13.103Z,32.90
2018-10-19T18:14:41.504Z,31.57
2018-10-19T18:17:09.997Z,31.33
2018-10-19T18:19:38.455Z,31.03
2018-10-19T18:22:07.174Z,32.13
2018-10-19T18:24:35.416Z,31.13
2018-10-19T18:27:03.963Z,25.80
2018-10-19T18:29:32.505Z,25.87
2018-10-19T18:32:00.994Z,23.43
2018-10-19T18:34:29.736Z,24.53
2018-10-19T18:36:58.265Z,27.40
2018-10-19T18:39:26.852Z,25.90
2018-10-19T18:41:55.398Z,26.47
2018-10-19T18:44:23.881Z,26.47
2018-10-19T18:46:52.413Z,27.47
2018-10-19T18:49:21.866Z,26.33
2018-10-19T18:51:50.335Z,24.27
2018-10-19T18:54:18.805Z,24.47
2018-10-19T18:56:47.237Z,24.63
2018-10-19T18:59:15.919Z,25.40
2018-10-19T19:01:44.457Z,23.67
2018-10-19T19:04:12.857Z,24.53
2018-10-19T19:06:41.309Z,21.90
2018-10-19T19:09:12.133Z,23.53
2018-10-19T19:11:40.597Z,24.97
2018-10-19T19:14:09.176Z,24.63
2018-10-19T19:16:37.850Z,25.40
2018-10-19T19:19:06.545Z,23.87
2018-10-19T19:21:35.006Z,23.50
2018-10-19T19:24:08.707Z,24.20
2018-10-19T19:26:37.335Z,24.60
2018-10-19T19:29:06.082Z,24.73
2018-10-19T19:31:34.473Z,26.03
2018-10-19T19:34:08.114Z,27.63
2018-10-19T19:36:36.560Z,25.37
2018-10-19T19:39:11.961Z,25.80
2018-10-19T19:41:45.598Z,23.57
2018-10-19T19:44:14.176Z,25.57
2018-10-19T19:46:42.590Z,23.83
2018-10-19T19:49:16.304Z,28.03
2018-10-19T19:51:44.826Z,24.87
2018-10-19T19:54:13.224Z,25.30
2018-10-19T19:56:41.813Z,25.40
2018-10-19T19:59:10.339Z,29.90
2018-10-19T20:01:38.858Z,28.70
2018-10-19T20:04:07.352Z,28.90
2018-10-19T20:06:36.098Z,29.03
2018-10-19T20:09:05.723Z,26.27
2018-10-19T20:11:34.221Z,26.90
2018-10-19T20:14:02.669Z,25.63
2018-10-19T20:16:31.119Z,26.67
2018-10-19T20:18:59.560Z,26.73
2018-10-19T20:21:28.016Z,25.40
2018-10-19T20:23:56.610Z,25.37
2018-10-19T20:26:25.057Z,25.30
2018-10-19T20:28:53.598Z,24.50
2018-10-19T20:31:22.106Z,26.13
2018-10-19T20:33:50.681Z,25.93
2018-10-19T20:36:19.183Z,25.23
2018-10-19T20:38:47.682Z,28.47
2018-10-19T20:41:16.118Z,30.97
2018-10-19T20:43:44.829Z,28.23
2018-10-19T20:46:13.328Z,29.20
2018-10-19T20:48:41.912Z,33.23
2018-10-19T20:51:10.364Z,30.87
2018-10-19T20:53:38.838Z,27.83
2018-10-19T20:56:07.389Z,27.27
2018-10-19T20:58:35.877Z,26.57
2018-10-19T21:01:04.398Z,26.57
2018-10-19T21:03:33.549Z,27.03
2018-10-19T21:06:02.008Z,28.77
2018-10-19T21:08:30.646Z,29.07
2018-10-19T21:10:59.241Z,27.00
2018-10-19T21:13:27.733Z,30.40
2018-10-19T21:15:56.226Z,28.10
2018-10-19T21:18:24.876Z,30.13
2018-10-19T21:20:53.528Z,28.17
2018-10-19T21:23:22.218Z,29.33
2018-10-19T21:25:51.063Z,31.80
2018-10-19T21:28:19.802Z,28.77
2018-10-19T21:30:48.628Z,29.77
2018-10-19T21:33:17.311Z,30.17
2018-10-19T21:35:45.872Z,30.07
2018-10-19T21:38:14.751Z,29.70
2018-10-19T21:40:43.093Z,30.07
2018-10-19T21:43:11.659Z,29.47
2018-10-19T21:45:40.139Z,32.60
2018-10-19T21:48:08.704Z,29.77
2018-10-19T21:50:38.146Z,33.33
2018-10-19T21:53:06.697Z,31.60
2018-10-19T21:55:35.280Z,30.67
2018-10-19T21:58:04.041Z,30.77
2018-10-19T22:00:32.528Z,31.00
2018-10-19T22:03:01.102Z,29.87
2018-10-19T22:05:29.568Z,30.73
2018-10-19T22:07:58.130Z,31.03
2018-10-19T22:10:26.820Z,32.80
2018-10-19T22:12:55.301Z,29.73
2018-10-19T22:15:23.856Z,30.10
2018-10-19T22:17:52.345Z,30.47
2018-10-19T22:20:21.825Z,29.20
2018-10-19T22:22:51.030Z,30.47
2018-10-19T22:25:19.601Z,29.10
2018-10-19T22:27:48.097Z,28.80
2018-10-19T22:30:16.585Z,29.33
2018-10-19T22:32:45.118Z,29.90
2018-10-19T22:35:13.708Z,28.33
2018-10-19T22:37:42.185Z,30.37
2018-10-19T22:40:10.716Z,28.17
2018-10-19T22:42:39.257Z,28.87
2018-10-19T22:45:07.689Z,29.27
2018-10-19T22:47:36.206Z,30.80
2018-10-19T22:50:04.832Z,30.77
2018-10-19T22:52:33.473Z,27.53
2018-10-19T22:55:02.036Z,31.03
2018-10-19T22:57:30.432Z,27.57
2018-10-19T22:59:59.021Z,28.33
2018-10-19T23:02:27.605Z,30.00
2018-10-19T23:04:56.083Z,28.33
2018-10-19T23:07:24.564Z,27.80
2018-10-19T23:09:53.058Z,26.43
2018-10-19T23:12:21.741Z,27.10
2018-10-19T23:14:50.356Z,25.80
2018-10-19T23:17:19.245Z,25.37
2018-10-19T23:19:47.704Z,25.17
2018-10-19T23:22:16.176Z,25.00
2018-10-19T23:24:44.579Z,23.83
2018-10-19T23:27:13.037Z,25.43
2018-10-19T23:29:41.514Z,24.60
2018-10-19T23:32:10.257Z,25.90
2018-10-19T23:34:38.802Z,26.20
2018-10-19T23:37:07.291Z,23.87
2018-10-19T23:39:35.726Z,23.30
2018-10-19T23:42:04.367Z,23.67
2018-10-19T23:44:32.800Z,24.13
2018-10-19T23:47:01.248Z,24.97
2018-10-19T23:49:29.701Z,25.50
2018-10-19T23:51:58.087Z,22.40
2018-10-19T23:54:26.525Z,24.47
2018-10-19T23:56:54.976Z,23.43
2018-10-19T23:59:23.513Z,23.23
